»·PEaware :: NKS486 KSEA-KSFO

NKS486 :: KSEA-KSFO

FLIGHT INFORMATION

Flight Status: Arrived
Operator:
Spirit Airlines
More flights by this operator :: More flights under this callsign
Pilot: Vasiliy S. (4053)
Aircraft: AIRBUS A321
(A321)
More flights by this aircraft type
Origin: KSEA Seattle-Tacoma Intl
United States
Destination: KSFO San Francisco Intl
United States
More flights between these airports :: More routes between these airports
Route: HAROB6 FEPOT Q3 FOWND MLBEC BDEGA3
File this flight plan on PilotEdge
Remarks: RMK / SIMBRIEF
Altitude:
(Current/Filed)
35,000ft
Speed:
(Current/Filed)
452kts
Departed: 16-Nov-20 11:20 AM
Arrived: 16-Nov-20 01:06 PM
Distance/Time
Traveled:
590nm/1:46
Distance/Time
To Go:
Arrived

Flight Plot

Page will automatically refresh every two minutes.

Flight plan parsing failed; only flown route is shown


Map Options




Map Legend


Flown Route
Filed Route
Departure Airport
Arrival Airport
Navaid (VOR, NDB)
Fix

Horizontal Profiles

Position Reports

Time Latitude Longitude Heading Altitude Ground
Speed
16-Nov-20 10:31 47.446079 -122.300806 145 335ft 0kts
16-Nov-20 10:32 47.446079 -122.300806 145 335ft 0kts
16-Nov-20 10:33 47.446079 -122.300806 145 335ft 0kts
16-Nov-20 10:34 47.446079 -122.300806 145 335ft 0kts
16-Nov-20 10:35 47.446079 -122.300806 145 335ft 0kts
16-Nov-20 10:36 47.446079 -122.300806 145 335ft 0kts
16-Nov-20 10:37 47.446079 -122.300806 145 335ft 0kts
16-Nov-20 10:38 47.446079 -122.300806 145 335ft 0kts
16-Nov-20 10:39 47.446079 -122.300806 145 335ft 0kts
16-Nov-20 10:39 47.446079 -122.300806 145 335ft 0kts
16-Nov-20 10:41 47.446079 -122.300806 145 335ft 0kts
16-Nov-20 10:42 47.446079 -122.300806 145 335ft 0kts
16-Nov-20 10:43 47.446079 -122.300806 145 335ft 0kts
16-Nov-20 10:43 47.446079 -122.300806 145 335ft 0kts
16-Nov-20 10:44 47.446079 -122.300806 145 335ft 0kts
16-Nov-20 10:46 47.446079 -122.300806 145 335ft 0kts
16-Nov-20 10:46 47.446079 -122.300806 145 335ft 0kts
16-Nov-20 10:47 47.446079 -122.300806 145 335ft 0kts
16-Nov-20 10:48 47.446079 -122.300806 145 335ft 0kts
16-Nov-20 10:49 47.446079 -122.300806 145 335ft 0kts
16-Nov-20 10:50 47.446079 -122.300806 145 335ft 0kts
16-Nov-20 10:51 47.446079 -122.300806 145 335ft 0kts
16-Nov-20 10:52 47.446079 -122.300806 145 335ft 0kts
16-Nov-20 10:53 47.446079 -122.300806 145 335ft 0kts
16-Nov-20 10:54 47.446079 -122.300806 145 335ft 0kts
16-Nov-20 10:55 47.446079 -122.300806 145 335ft 0kts
16-Nov-20 10:56 47.446079 -122.300806 145 335ft 0kts
16-Nov-20 10:57 47.446079 -122.300806 145 335ft 0kts
16-Nov-20 10:58 47.446079 -122.300806 145 335ft 0kts
16-Nov-20 10:59 47.446079 -122.300806 145 335ft 0kts
16-Nov-20 11:00 47.446079 -122.300806 145 335ft 0kts
16-Nov-20 11:01 47.446079 -122.300806 145 335ft 0kts
16-Nov-20 11:02 47.446079 -122.300806 145 335ft 0kts
16-Nov-20 11:03 47.446551 -122.301126 180 335ft 2kts
16-Nov-20 11:04 47.447023 -122.300780 235 335ft 1kts
16-Nov-20 11:05 47.447055 -122.300708 236 335ft 0kts
16-Nov-20 11:06 47.447055 -122.300708 236 335ft 0kts
16-Nov-20 11:07 47.447054 -122.300709 236 335ft 0kts
16-Nov-20 11:08 47.447054 -122.300709 236 335ft 0kts
16-Nov-20 11:09 47.446999 -122.300831 236 335ft 3kts
16-Nov-20 11:10 47.447656 -122.304391 268 335ft 9kts
16-Nov-20 11:11 47.445656 -122.306326 180 335ft 16kts
16-Nov-20 11:12 47.440709 -122.306371 180 335ft 19kts
16-Nov-20 11:13 47.435832 -122.305848 146 335ft 12kts
16-Nov-20 11:14 47.432109 -122.305558 160 335ft 9kts
16-Nov-20 11:15 47.431145 -122.305970 244 335ft 0kts
16-Nov-20 11:16 47.431145 -122.305971 244 335ft 0kts
16-Nov-20 11:17 47.431145 -122.305971 244 335ft 0kts
16-Nov-20 11:18 47.431629 -122.308032 354 335ft 4kts
16-Nov-20 11:19 47.453465 -122.307960 0 557ft 172kts
16-Nov-20 11:20 47.502792 -122.306824 0 2872ft 196kts
16-Nov-20 11:21 47.565552 -122.318943 330 4550ft 265kts
16-Nov-20 11:22 47.613411 -122.401863 276 7393ft 281kts
16-Nov-20 11:23 47.595533 -122.507019 223 10382ft 274kts
16-Nov-20 11:24 47.536290 -122.595888 226 11841ft 331kts
16-Nov-20 11:25 47.467515 -122.700942 226 13878ft 363kts
16-Nov-20 11:26 47.396155 -122.809627 226 16467ft 367kts
16-Nov-20 11:27 47.323981 -122.918855 227 18909ft 374kts
16-Nov-20 11:28 47.248643 -123.029965 224 20824ft 388kts
16-Nov-20 11:29 47.161438 -123.130214 220 22504ft 402kts
16-Nov-20 11:30 47.061618 -123.212162 197 23993ft 431kts
16-Nov-20 11:31 46.940043 -123.213811 187 26017ft 435kts
16-Nov-20 11:32 46.820715 -123.209593 187 27721ft 431kts
16-Nov-20 11:33 46.701166 -123.205551 188 29321ft 427kts
16-Nov-20 11:34 46.583197 -123.201675 188 30737ft 423kts
16-Nov-20 11:35 46.466279 -123.197834 188 32035ft 418kts
16-Nov-20 11:36 46.350471 -123.194052 188 33274ft 413kts
16-Nov-20 11:37 46.236207 -123.190335 189 34347ft 409kts
16-Nov-20 11:38 46.122344 -123.186710 189 34920ft 410kts
16-Nov-20 11:39 46.007599 -123.183004 188 34899ft 411kts
16-Nov-20 11:40 45.895735 -123.179443 188 34868ft 411kts
16-Nov-20 11:41 45.780844 -123.175626 188 34860ft 411kts
16-Nov-20 11:42 45.665914 -123.171915 188 34859ft 411kts
16-Nov-20 11:43 45.551535 -123.168276 188 34862ft 410kts
16-Nov-20 11:44 45.436798 -123.164657 188 34905ft 411kts
16-Nov-20 11:45 45.322798 -123.161080 187 34941ft 411kts
16-Nov-20 11:46 45.208011 -123.157495 187 34948ft 413kts
16-Nov-20 11:47 45.093311 -123.153911 187 34949ft 414kts
16-Nov-20 11:48 44.978121 -123.150320 187 34964ft 414kts
16-Nov-20 11:49 44.862893 -123.146712 187 34982ft 415kts
16-Nov-20 11:50 44.747267 -123.143073 187 34986ft 414kts
16-Nov-20 11:51 44.632124 -123.139512 187 34986ft 415kts
16-Nov-20 11:52 44.516767 -123.135961 187 34986ft 415kts
16-Nov-20 11:53 44.401557 -123.131975 186 34986ft 415kts
16-Nov-20 11:54 44.285789 -123.127837 186 34986ft 415kts
16-Nov-20 11:55 44.170155 -123.123748 186 34987ft 415kts
16-Nov-20 11:56 44.054579 -123.119657 186 34986ft 415kts
16-Nov-20 11:57 43.938976 -123.115665 186 34986ft 418kts
16-Nov-20 11:58 43.822702 -123.111485 185 34988ft 418kts
16-Nov-20 11:59 43.706471 -123.107377 185 34998ft 418kts
16-Nov-20 12:00 43.590326 -123.103327 185 35012ft 418kts
16-Nov-20 12:01 43.474194 -123.099314 185 35016ft 419kts
16-Nov-20 12:02 43.358121 -123.095302 185 35016ft 419kts
16-Nov-20 12:03 43.241317 -123.091287 185 35017ft 419kts
16-Nov-20 12:04 43.124760 -123.087298 185 35020ft 421kts
16-Nov-20 12:05 43.008034 -123.083315 185 35033ft 421kts
16-Nov-20 12:06 42.890499 -123.079301 185 35042ft 421kts
16-Nov-20 12:07 42.773517 -123.075277 185 35043ft 421kts
16-Nov-20 12:08 42.655860 -123.071296 185 35045ft 423kts
16-Nov-20 12:09 42.537718 -123.067294 185 35063ft 423kts
16-Nov-20 12:10 42.419897 -123.063427 185 35074ft 423kts
16-Nov-20 12:11 42.302390 -123.059663 185 35076ft 423kts
16-Nov-20 12:12 42.184107 -123.055870 185 35076ft 424kts
16-Nov-20 12:13 42.066512 -123.052093 185 35078ft 424kts
16-Nov-20 12:14 41.947923 -123.048346 184 35086ft 427kts
16-Nov-20 12:15 41.830229 -123.044530 184 35101ft 427kts
16-Nov-20 12:16 41.711583 -123.040714 184 35108ft 427kts
16-Nov-20 12:17 41.592892 -123.037037 185 35105ft 427kts
16-Nov-20 12:19 41.473557 -123.033161 184 35115ft 428kts
16-Nov-20 12:20 41.354652 -123.029443 184 35114ft 428kts
16-Nov-20 12:21 41.236256 -123.025867 185 35126ft 427kts
16-Nov-20 12:22 41.117144 -123.022368 184 35111ft 429kts
16-Nov-20 12:23 40.997637 -123.018710 184 35125ft 429kts
16-Nov-20 12:24 40.877934 -123.015169 185 35131ft 429kts
16-Nov-20 12:25 40.758808 -123.011596 185 35127ft 429kts
16-Nov-20 12:26 40.639192 -123.007942 185 35098ft 429kts
16-Nov-20 12:27 40.520215 -123.004514 184 35086ft 430kts
16-Nov-20 12:28 40.400958 -123.001002 185 35082ft 430kts
16-Nov-20 12:29 40.281552 -122.997549 185 35082ft 430kts
16-Nov-20 12:30 40.161723 -122.994046 185 35086ft 430kts
16-Nov-20 12:31 40.042344 -122.990396 184 35099ft 430kts
16-Nov-20 12:32 39.922631 -122.986973 184 35095ft 433kts
16-Nov-20 12:33 39.813813 -122.983786 184 35095ft 434kts
16-Nov-20 12:34 39.693222 -122.980277 184 35096ft 434kts
16-Nov-20 12:35 39.572414 -122.976805 184 35097ft 434kts
16-Nov-20 12:36 39.452054 -122.973328 184 35099ft 435kts
16-Nov-20 12:37 39.330962 -122.969857 184 35099ft 435kts
16-Nov-20 12:38 39.210076 -122.966384 184 35100ft 436kts
16-Nov-20 12:38 39.108665 -122.963471 184 35100ft 437kts
16-Nov-20 12:39 38.987055 -122.960974 184 33343ft 440kts
16-Nov-20 12:41 38.847888 -122.949739 175 30477ft 438kts
16-Nov-20 12:41 38.749196 -122.921647 172 28261ft 434kts
16-Nov-20 12:42 38.632394 -122.887092 172 25572ft 425kts
16-Nov-20 12:43 38.525735 -122.855534 172 25012ft 378kts
16-Nov-20 12:44 38.423589 -122.825632 172 23366ft 368kts
16-Nov-20 12:45 38.325715 -122.796903 172 21631ft 354kts
16-Nov-20 12:46 38.231390 -122.769298 172 19953ft 343kts
16-Nov-20 12:47 38.139767 -122.742675 172 18318ft 329kts
16-Nov-20 12:48 38.050945 -122.716913 171 16730ft 324kts
16-Nov-20 12:49 37.964174 -122.691806 170 15189ft 317kts
16-Nov-20 12:50 37.881841 -122.654866 146 13655ft 321kts
16-Nov-20 12:51 37.813460 -122.582175 143 12151ft 343kts
16-Nov-20 12:52 37.734133 -122.498145 142 11086ft 336kts
16-Nov-20 12:53 37.671408 -122.431369 142 10230ft 275kts
16-Nov-20 12:54 37.613054 -122.369712 144 9501ft 272kts
16-Nov-20 12:55 37.544118 -122.327308 155 6991ft 269kts
16-Nov-20 12:56 37.480560 -122.287425 154 6920ft 260kts
16-Nov-20 12:57 37.423662 -122.235231 115 6978ft 261kts
16-Nov-20 12:58 37.409612 -122.147612 64 6699ft 262kts
16-Nov-20 12:59 37.470587 -122.105757 358 5311ft 243kts
16-Nov-20 13:00 37.522898 -122.150421 304 3956ft 221kts
16-Nov-20 13:01 37.551935 -122.216919 300 2719ft 192kts
16-Nov-20 13:02 37.574498 -122.270029 300 1630ft 149kts
16-Nov-20 13:03 37.594209 -122.316608 300 810ft 153kts
16-Nov-20 13:04 37.613733 -122.363199 298 26ft 142kts
16-Nov-20 13:05 37.621757 -122.382635 260 20ft 9kts
16-Nov-20 13:06 37.621067 -122.383265 198 20ft 2kts
16-Nov-20 13:07 37.619818 -122.382442 118 20ft 8kts
16-Nov-20 13:08 37.618670 -122.382375 141 20ft 3kts
16-Nov-20 13:09 37.618347 -122.382027 139 20ft 0kts
16-Nov-20 13:10 37.618347 -122.382027 139 20ft 0kts
16-Nov-20 13:11 37.618347 -122.382027 139 20ft 0kts
16-Nov-20 13:12 37.618347 -122.382027 139 20ft 0kts
16-Nov-20 13:13 37.618347 -122.382027 139 20ft 0kts
16-Nov-20 13:14 37.618347 -122.382027 139 20ft 0kts
16-Nov-20 13:15 37.618347 -122.382027 139 20ft 0kts
16-Nov-20 13:16 37.618347 -122.382027 139 20ft 0kts
16-Nov-20 13:17 37.618347 -122.382027 139 20ft 0kts
16-Nov-20 13:18 37.618347 -122.382027 139 20ft 0kts

Navigation Log

Ident Type
Flight plan parsing failed, navigation log unavailable